sensor_id;sensor_type;location;lat;lon;timestamp;temperature;humidity
45060;DHT22;30799;49.060;9.312;2022-08-02T00:00:07;25.40;62.30
45060;DHT22;30799;49.060;9.312;2022-08-02T00:02:34;25.40;62.30
45060;DHT22;30799;49.060;9.312;2022-08-02T00:05:01;25.40;62.40
45060;DHT22;30799;49.060;9.312;2022-08-02T00:07:28;25.40;62.20
45060;DHT22;30799;49.060;9.312;2022-08-02T00:09:54;25.40;62.30
45060;DHT22;30799;49.060;9.312;2022-08-02T00:12:21;25.40;62.30
45060;DHT22;30799;49.060;9.312;2022-08-02T00:14:48;25.40;62.40
45060;DHT22;30799;49.060;9.312;2022-08-02T00:17:15;25.40;62.40
45060;DHT22;30799;49.060;9.312;2022-08-02T00:19:41;25.40;62.40
45060;DHT22;30799;49.060;9.312;2022-08-02T00:22:09;25.40;62.30
45060;DHT22;30799;49.060;9.312;2022-08-02T00:24:37;25.40;62.40
45060;DHT22;30799;49.060;9.312;2022-08-02T00:27:03;25.40;62.40
45060;DHT22;30799;49.060;9.312;2022-08-02T00:29:35;25.40;62.40
45060;DHT22;30799;49.060;9.312;2022-08-02T00:32:19;25.40;62.40
45060;DHT22;30799;49.060;9.312;2022-08-02T00:34:45;25.40;62.40
45060;DHT22;30799;49.060;9.312;2022-08-02T00:37:12;25.40;62.40
45060;DHT22;30799;49.060;9.312;2022-08-02T00:39:39;25.40;62.40
45060;DHT22;30799;49.060;9.312;2022-08-02T00:42:08;25.30;62.30
45060;DHT22;30799;49.060;9.312;2022-08-02T00:44:35;25.40;62.40
45060;DHT22;30799;49.060;9.312;2022-08-02T00:47:02;25.40;62.40
45060;DHT22;30799;49.060;9.312;2022-08-02T00:49:29;25.40;62.40
45060;DHT22;30799;49.060;9.312;2022-08-02T00:51:58;25.40;62.40
45060;DHT22;30799;49.060;9.312;2022-08-02T00:54:25;25.40;62.40
45060;DHT22;30799;49.060;9.312;2022-08-02T00:56:52;25.40;62.40
45060;DHT22;30799;49.060;9.312;2022-08-02T00:59:18;25.40;62.40
45060;DHT22;30799;49.060;9.312;2022-08-02T01:01:45;25.40;62.30
45060;DHT22;30799;49.060;9.312;2022-08-02T01:04:26;25.40;62.40
45060;DHT22;30799;49.060;9.312;2022-08-02T01:07:01;25.40;62.40
45060;DHT22;30799;49.060;9.312;2022-08-02T01:09:45;25.40;62.30
45060;DHT22;30799;49.060;9.312;2022-08-02T01:12:12;25.40;62.40
45060;DHT22;30799;49.060;9.312;2022-08-02T01:14:41;25.40;62.30
45060;DHT22;30799;49.060;9.312;2022-08-02T01:17:21;25.40;62.30
45060;DHT22;30799;49.060;9.312;2022-08-02T01:28:26;25.40;62.30
45060;DHT22;30799;49.060;9.312;2022-08-02T01:31:01;25.30;62.10
45060;DHT22;30799;49.060;9.312;2022-08-02T01:33:36;25.40;62.20
45060;DHT22;30799;49.060;9.312;2022-08-02T01:36:10;25.40;62.20
45060;DHT22;30799;49.060;9.312;2022-08-02T01:38:41;25.40;62.20
45060;DHT22;30799;49.060;9.312;2022-08-02T01:41:12;25.40;62.20
45060;DHT22;30799;49.060;9.312;2022-08-02T01:43:42;25.40;62.20
45060;DHT22;30799;49.060;9.312;2022-08-02T01:46:11;25.30;62.10
45060;DHT22;30799;49.060;9.312;2022-08-02T01:48:40;25.40;62.30
45060;DHT22;30799;49.060;9.312;2022-08-02T01:51:11;25.40;62.10
45060;DHT22;30799;49.060;9.312;2022-08-02T01:53:39;25.40;62.10
45060;DHT22;30799;49.060;9.312;2022-08-02T01:56:08;25.40;62.10
45060;DHT22;30799;49.060;9.312;2022-08-02T01:58:38;25.40;62.10
45060;DHT22;30799;49.060;9.312;2022-08-02T02:01:08;25.40;62.10
45060;DHT22;30799;49.060;9.312;2022-08-02T02:03:44;25.40;62.10
45060;DHT22;30799;49.060;9.312;2022-08-02T02:06:13;25.30;61.90
45060;DHT22;30799;49.060;9.312;2022-08-02T02:08:42;25.40;62.00
45060;DHT22;30799;49.060;9.312;2022-08-02T02:11:09;25.40;62.00
45060;DHT22;30799;49.060;9.312;2022-08-02T02:13:57;25.30;61.90
45060;DHT22;30799;49.060;9.312;2022-08-02T02:16:27;25.40;62.10
45060;DHT22;30799;49.060;9.312;2022-08-02T02:18:54;25.30;61.90
45060;DHT22;30799;49.060;9.312;2022-08-02T02:21:21;25.30;61.90
45060;DHT22;30799;49.060;9.312;2022-08-02T02:23:47;25.40;62.00
45060;DHT22;30799;49.060;9.312;2022-08-02T02:26:16;25.40;62.00
45060;DHT22;30799;49.060;9.312;2022-08-02T02:29:00;25.40;61.90
45060;DHT22;30799;49.060;9.312;2022-08-02T02:31:33;25.40;61.90
45060;DHT22;30799;49.060;9.312;2022-08-02T02:34:03;25.40;61.90
45060;DHT22;30799;49.060;9.312;2022-08-02T02:36:32;25.40;61.90
45060;DHT22;30799;49.060;9.312;2022-08-02T02:39:02;25.30;61.70
45060;DHT22;30799;49.060;9.312;2022-08-02T02:41:39;25.30;61.80
45060;DHT22;30799;49.060;9.312;2022-08-02T02:44:09;25.40;61.90
45060;DHT22;30799;49.060;9.312;2022-08-02T02:46:37;25.40;61.80
45060;DHT22;30799;49.060;9.312;2022-08-02T02:49:04;25.40;61.80
45060;DHT22;30799;49.060;9.312;2022-08-02T02:51:31;25.40;61.80
45060;DHT22;30799;49.060;9.312;2022-08-02T02:53:59;25.40;61.80
45060;DHT22;30799;49.060;9.312;2022-08-02T02:56:47;25.40;61.80
45060;DHT22;30799;49.060;9.312;2022-08-02T02:59:14;25.40;61.70
45060;DHT22;30799;49.060;9.312;2022-08-02T03:01:41;25.30;61.70
45060;DHT22;30799;49.060;9.312;2022-08-02T03:04:23;25.30;61.60
45060;DHT22;30799;49.060;9.312;2022-08-02T03:06:50;25.40;61.70
45060;DHT22;30799;49.060;9.312;2022-08-02T03:09:17;25.30;61.60
45060;DHT22;30799;49.060;9.312;2022-08-02T03:11:44;25.30;61.60
45060;DHT22;30799;49.060;9.312;2022-08-02T03:14:11;25.30;61.60
45060;DHT22;30799;49.060;9.312;2022-08-02T03:16:47;25.40;61.70
45060;DHT22;30799;49.060;9.312;2022-08-02T03:19:14;25.30;61.60
45060;DHT22;30799;49.060;9.312;2022-08-02T03:21:42;25.30;61.60
45060;DHT22;30799;49.060;9.312;2022-08-02T03:24:10;25.30;61.60
45060;DHT22;30799;49.060;9.312;2022-08-02T03:26:37;25.40;61.60
45060;DHT22;30799;49.060;9.312;2022-08-02T03:29:04;25.30;61.60
45060;DHT22;30799;49.060;9.312;2022-08-02T03:31:39;25.30;61.60
45060;DHT22;30799;49.060;9.312;2022-08-02T03:34:06;25.30;61.50
45060;DHT22;30799;49.060;9.312;2022-08-02T03:36:34;25.30;61.50
45060;DHT22;30799;49.060;9.312;2022-08-02T03:39:02;25.30;61.50
45060;DHT22;30799;49.060;9.312;2022-08-02T03:41:30;25.30;61.50
45060;DHT22;30799;49.060;9.312;2022-08-02T03:43:57;25.30;61.50
45060;DHT22;30799;49.060;9.312;2022-08-02T03:46:25;25.30;61.50
45060;DHT22;30799;49.060;9.312;2022-08-02T03:48:53;25.30;61.50
45060;DHT22;30799;49.060;9.312;2022-08-02T03:51:21;25.30;61.50
45060;DHT22;30799;49.060;9.312;2022-08-02T03:53:49;25.30;61.40
45060;DHT22;30799;49.060;9.312;2022-08-02T03:56:16;25.30;61.50
45060;DHT22;30799;49.060;9.312;2022-08-02T03:58:43;25.30;61.40
45060;DHT22;30799;49.060;9.312;2022-08-02T04:01:14;25.30;61.50
45060;DHT22;30799;49.060;9.312;2022-08-02T04:03:41;25.30;61.40
45060;DHT22;30799;49.060;9.312;2022-08-02T04:06:08;25.30;61.30
45060;DHT22;30799;49.060;9.312;2022-08-02T04:08:35;25.30;61.40
45060;DHT22;30799;49.060;9.312;2022-08-02T04:11:04;25.30;61.30
45060;DHT22;30799;49.060;9.312;2022-08-02T04:13:50;25.30;61.30
45060;DHT22;30799;49.060;9.312;2022-08-02T04:16:41;25.30;62.10
45060;DHT22;30799;49.060;9.312;2022-08-02T04:19:12;25.30;61.30
45060;DHT22;30799;49.060;9.312;2022-08-02T04:21:43;25.30;61.30
45060;DHT22;30799;49.060;9.312;2022-08-02T04:24:24;25.30;61.30
45060;DHT22;30799;49.060;9.312;2022-08-02T04:26:56;25.30;61.20
45060;DHT22;30799;49.060;9.312;2022-08-02T04:29:45;25.30;61.30
45060;DHT22;30799;49.060;9.312;2022-08-02T04:32:13;25.30;61.30
45060;DHT22;30799;49.060;9.312;2022-08-02T04:34:40;25.30;61.20
45060;DHT22;30799;49.060;9.312;2022-08-02T04:37:20;25.30;61.20
45060;DHT22;30799;49.060;9.312;2022-08-02T04:39:47;25.30;61.30
45060;DHT22;30799;49.060;9.312;2022-08-02T04:42:21;25.30;61.20
45060;DHT22;30799;49.060;9.312;2022-08-02T04:44:49;25.30;61.20
45060;DHT22;30799;49.060;9.312;2022-08-02T04:47:16;25.30;61.20
45060;DHT22;30799;49.060;9.312;2022-08-02T04:50:03;25.30;61.20
45060;DHT22;30799;49.060;9.312;2022-08-02T04:52:30;25.30;61.20
45060;DHT22;30799;49.060;9.312;2022-08-02T04:54:57;25.30;61.20
45060;DHT22;30799;49.060;9.312;2022-08-02T04:57:23;25.30;61.10
45060;DHT22;30799;49.060;9.312;2022-08-02T05:00:18;25.30;61.20
45060;DHT22;30799;49.060;9.312;2022-08-02T05:02:45;25.30;61.10
45060;DHT22;30799;49.060;9.312;2022-08-02T05:05:12;25.30;61.20
45060;DHT22;30799;49.060;9.312;2022-08-02T05:07:39;24.60;59.90
45060;DHT22;30799;49.060;9.312;2022-08-02T05:10:06;23.80;62.50
45060;DHT22;30799;49.060;9.312;2022-08-02T05:12:33;23.50;64.20
45060;DHT22;30799;49.060;9.312;2022-08-02T05:14:59;23.20;65.20
45060;DHT22;30799;49.060;9.312;2022-08-02T05:17:26;23.00;65.90
45060;DHT22;30799;49.060;9.312;2022-08-02T05:19:53;22.90;66.60
45060;DHT22;30799;49.060;9.312;2022-08-02T05:22:19;22.90;67.00
45060;DHT22;30799;49.060;9.312;2022-08-02T05:24:46;22.90;67.10
45060;DHT22;30799;49.060;9.312;2022-08-02T05:27:12;22.80;67.10
45060;DHT22;30799;49.060;9.312;2022-08-02T05:29:46;22.70;67.30
45060;DHT22;30799;49.060;9.312;2022-08-02T05:32:21;22.70;67.60
45060;DHT22;30799;49.060;9.312;2022-08-02T05:34:51;22.60;67.80
45060;DHT22;30799;49.060;9.312;2022-08-02T05:37:18;22.60;67.60
45060;DHT22;30799;49.060;9.312;2022-08-02T05:39:45;22.70;67.50
45060;DHT22;30799;49.060;9.312;2022-08-02T05:42:22;22.70;67.50
45060;DHT22;30799;49.060;9.312;2022-08-02T05:44:48;22.70;67.20
45060;DHT22;30799;49.060;9.312;2022-08-02T05:47:15;22.70;67.20
45060;DHT22;30799;49.060;9.312;2022-08-02T05:49:42;22.80;67.00
45060;DHT22;30799;49.060;9.312;2022-08-02T05:52:17;22.80;67.30
45060;DHT22;30799;49.060;9.312;2022-08-02T05:55:02;22.80;67.20
45060;DHT22;30799;49.060;9.312;2022-08-02T06:00:11;23.50;65.70
45060;DHT22;30799;49.060;9.312;2022-08-02T06:02:43;23.70;63.90
45060;DHT22;30799;49.060;9.312;2022-08-02T06:05:15;23.90;63.30
45060;DHT22;30799;49.060;9.312;2022-08-02T06:07:44;24.00;62.80
45060;DHT22;30799;49.060;9.312;2022-08-02T06:10:12;24.10;62.40
45060;DHT22;30799;49.060;9.312;2022-08-02T06:12:49;24.10;62.10
45060;DHT22;30799;49.060;9.312;2022-08-02T06:15:18;24.20;62.00
45060;DHT22;30799;49.060;9.312;2022-08-02T06:17:46;24.20;61.80
45060;DHT22;30799;49.060;9.312;2022-08-02T06:20:14;24.30;61.70
45060;DHT22;30799;49.060;9.312;2022-08-02T06:22:43;24.30;61.60
45060;DHT22;30799;49.060;9.312;2022-08-02T06:25:11;24.30;61.50
45060;DHT22;30799;49.060;9.312;2022-08-02T06:28:04;24.40;61.50
45060;DHT22;30799;49.060;9.312;2022-08-02T06:30:37;24.40;61.40
45060;DHT22;30799;49.060;9.312;2022-08-02T06:33:04;24.40;61.30
45060;DHT22;30799;49.060;9.312;2022-08-02T06:35:36;24.50;61.40
45060;DHT22;30799;49.060;9.312;2022-08-02T06:38:07;24.50;61.30
45060;DHT22;30799;49.060;9.312;2022-08-02T06:43:12;24.50;61.30
45060;DHT22;30799;49.060;9.312;2022-08-02T06:45:43;24.50;61.20
45060;DHT22;30799;49.060;9.312;2022-08-02T06:48:10;24.50;61.90
45060;DHT22;30799;49.060;9.312;2022-08-02T06:50:37;24.60;61.20
45060;DHT22;30799;49.060;9.312;2022-08-02T06:53:05;24.60;61.10
45060;DHT22;30799;49.060;9.312;2022-08-02T06:55:31;24.60;61.20
45060;DHT22;30799;49.060;9.312;2022-08-02T06:58:09;24.60;61.10
45060;DHT22;30799;49.060;9.312;2022-08-02T07:00:37;24.60;61.10
45060;DHT22;30799;49.060;9.312;2022-08-02T07:03:04;24.60;61.10
45060;DHT22;30799;49.060;9.312;2022-08-02T07:05:31;24.60;61.00
45060;DHT22;30799;49.060;9.312;2022-08-02T07:07:57;24.60;61.00
45060;DHT22;30799;49.060;9.312;2022-08-02T07:10:24;24.70;61.00
45060;DHT22;30799;49.060;9.312;2022-08-02T07:12:51;24.70;61.00
45060;DHT22;30799;49.060;9.312;2022-08-02T07:15:17;24.70;61.00
45060;DHT22;30799;49.060;9.312;2022-08-02T07:17:44;24.70;60.90
45060;DHT22;30799;49.060;9.312;2022-08-02T07:20:11;24.70;60.90
45060;DHT22;30799;49.060;9.312;2022-08-02T07:22:39;24.70;60.90
45060;DHT22;30799;49.060;9.312;2022-08-02T07:25:06;24.70;60.90
45060;DHT22;30799;49.060;9.312;2022-08-02T07:27:33;24.70;60.90
45060;DHT22;30799;49.060;9.312;2022-08-02T07:30:00;24.70;60.80
45060;DHT22;30799;49.060;9.312;2022-08-02T07:32:30;24.80;60.90
45060;DHT22;30799;49.060;9.312;2022-08-02T07:34:58;24.80;60.90
45060;DHT22;30799;49.060;9.312;2022-08-02T07:37:33;24.80;60.90
45060;DHT22;30799;49.060;9.312;2022-08-02T07:40:21;24.70;60.80
45060;DHT22;30799;49.060;9.312;2022-08-02T07:42:51;24.80;60.80
45060;DHT22;30799;49.060;9.312;2022-08-02T07:45:22;24.80;60.80
45060;DHT22;30799;49.060;9.312;2022-08-02T07:47:50;24.80;60.80
45060;DHT22;30799;49.060;9.312;2022-08-02T07:50:19;24.80;60.70
45060;DHT22;30799;49.060;9.312;2022-08-02T07:52:46;24.80;60.70
45060;DHT22;30799;49.060;9.312;2022-08-02T07:55:14;24.80;60.70
45060;DHT22;30799;49.060;9.312;2022-08-02T07:57:41;24.80;61.50
45060;DHT22;30799;49.060;9.312;2022-08-02T08:00:12;24.80;60.70
45060;DHT22;30799;49.060;9.312;2022-08-02T08:02:41;24.80;60.70
45060;DHT22;30799;49.060;9.312;2022-08-02T08:05:08;24.80;60.70
45060;DHT22;30799;49.060;9.312;2022-08-02T08:07:35;24.80;60.60
45060;DHT22;30799;49.060;9.312;2022-08-02T08:10:02;24.80;60.60
45060;DHT22;30799;49.060;9.312;2022-08-02T08:12:29;24.80;60.60
45060;DHT22;30799;49.060;9.312;2022-08-02T08:14:56;24.80;61.40
45060;DHT22;30799;49.060;9.312;2022-08-02T08:17:23;24.80;60.60
45060;DHT22;30799;49.060;9.312;2022-08-02T08:19:49;24.90;60.60
45060;DHT22;30799;49.060;9.312;2022-08-02T08:22:21;24.90;60.60
45060;DHT22;30799;49.060;9.312;2022-08-02T08:24:48;24.90;60.60
45060;DHT22;30799;49.060;9.312;2022-08-02T08:27:16;24.90;60.60
45060;DHT22;30799;49.060;9.312;2022-08-02T08:29:44;24.90;60.60
45060;DHT22;30799;49.060;9.312;2022-08-02T08:32:11;24.90;60.60
45060;DHT22;30799;49.060;9.312;2022-08-02T08:34:46;24.90;60.60
45060;DHT22;30799;49.060;9.312;2022-08-02T08:37:13;24.90;60.60
45060;DHT22;30799;49.060;9.312;2022-08-02T08:39:48;24.90;60.60
45060;DHT22;30799;49.060;9.312;2022-08-02T08:42:29;24.90;60.50
45060;DHT22;30799;49.060;9.312;2022-08-02T08:44:56;24.90;60.50
45060;DHT22;30799;49.060;9.312;2022-08-02T08:47:32;24.90;60.50
45060;DHT22;30799;49.060;9.312;2022-08-02T08:50:18;24.90;60.50
45060;DHT22;30799;49.060;9.312;2022-08-02T08:53:03;24.90;60.50
45060;DHT22;30799;49.060;9.312;2022-08-02T08:55:32;24.90;60.50
45060;DHT22;30799;49.060;9.312;2022-08-02T08:58:00;24.90;60.50
45060;DHT22;30799;49.060;9.312;2022-08-02T09:00:32;24.90;60.50
45060;DHT22;30799;49.060;9.312;2022-08-02T09:03:05;24.90;60.50
45060;DHT22;30799;49.060;9.312;2022-08-02T09:05:34;24.90;60.40
45060;DHT22;30799;49.060;9.312;2022-08-02T09:08:01;24.90;60.40
45060;DHT22;30799;49.060;9.312;2022-08-02T09:10:45;24.90;60.50
45060;DHT22;30799;49.060;9.312;2022-08-02T09:16:08;24.90;60.40
45060;DHT22;30799;49.060;9.312;2022-08-02T09:18:39;24.90;60.40
45060;DHT22;30799;49.060;9.312;2022-08-02T09:21:08;24.90;60.30
45060;DHT22;30799;49.060;9.312;2022-08-02T09:23:38;24.90;60.40
45060;DHT22;30799;49.060;9.312;2022-08-02T09:26:07;24.90;60.30
45060;DHT22;30799;49.060;9.312;2022-08-02T09:28:42;25.00;60.40
45060;DHT22;30799;49.060;9.312;2022-08-02T09:31:21;25.00;60.40
45060;DHT22;30799;49.060;9.312;2022-08-02T09:33:58;25.00;60.40
45060;DHT22;30799;49.060;9.312;2022-08-02T09:36:26;25.00;60.40
45060;DHT22;30799;49.060;9.312;2022-08-02T09:39:01;25.00;60.40
45060;DHT22;30799;49.060;9.312;2022-08-02T09:41:32;25.00;60.30
45060;DHT22;30799;49.060;9.312;2022-08-02T09:44:00;25.00;60.30
45060;DHT22;30799;49.060;9.312;2022-08-02T09:46:32;25.00;60.30
45060;DHT22;30799;49.060;9.312;2022-08-02T09:49:04;25.00;60.30
45060;DHT22;30799;49.060;9.312;2022-08-02T09:51:34;25.00;60.30
45060;DHT22;30799;49.060;9.312;2022-08-02T09:54:07;25.00;60.30
45060;DHT22;30799;49.060;9.312;2022-08-02T09:56:42;25.00;60.30
45060;DHT22;30799;49.060;9.312;2022-08-02T09:59:09;25.00;60.30
45060;DHT22;30799;49.060;9.312;2022-08-02T10:01:37;25.00;60.30
45060;DHT22;30799;49.060;9.312;2022-08-02T10:04:10;25.00;60.30
45060;DHT22;30799;49.060;9.312;2022-08-02T10:06:48;25.00;60.30
45060;DHT22;30799;49.060;9.312;2022-08-02T10:09:15;25.00;60.30
45060;DHT22;30799;49.060;9.312;2022-08-02T10:11:43;25.00;60.30
45060;DHT22;30799;49.060;9.312;2022-08-02T10:14:10;25.00;60.20
45060;DHT22;30799;49.060;9.312;2022-08-02T10:16:39;25.00;60.20
45060;DHT22;30799;49.060;9.312;2022-08-02T10:19:06;25.00;60.20
45060;DHT22;30799;49.060;9.312;2022-08-02T10:21:53;25.00;60.20
45060;DHT22;30799;49.060;9.312;2022-08-02T10:24:25;25.00;60.20
45060;DHT22;30799;49.060;9.312;2022-08-02T10:26:52;25.00;60.20
45060;DHT22;30799;49.060;9.312;2022-08-02T10:29:29;25.00;60.20
45060;DHT22;30799;49.060;9.312;2022-08-02T10:32:32;25.00;60.20
45060;DHT22;30799;49.060;9.312;2022-08-02T10:35:05;25.00;60.20
45060;DHT22;30799;49.060;9.312;2022-08-02T10:37:53;25.00;60.10
45060;DHT22;30799;49.060;9.312;2022-08-02T10:40:21;25.10;60.20
45060;DHT22;30799;49.060;9.312;2022-08-02T10:42:50;25.10;60.20
45060;DHT22;30799;49.060;9.312;2022-08-02T10:45:19;25.10;60.20
45060;DHT22;30799;49.060;9.312;2022-08-02T10:48:08;25.10;60.20
45060;DHT22;30799;49.060;9.312;2022-08-02T10:53:43;25.00;60.10
45060;DHT22;30799;49.060;9.312;2022-08-02T10:56:49;25.10;60.10
45060;DHT22;30799;49.060;9.312;2022-08-02T10:59:31;25.10;60.10
45060;DHT22;30799;49.060;9.312;2022-08-02T11:02:04;25.10;60.10
45060;DHT22;30799;49.060;9.312;2022-08-02T11:07:26;25.10;60.10
45060;DHT22;30799;49.060;9.312;2022-08-02T11:09:56;25.10;60.10
45060;DHT22;30799;49.060;9.312;2022-08-02T11:12:25;25.10;60.10
45060;DHT22;30799;49.060;9.312;2022-08-02T11:15:02;25.10;60.10
45060;DHT22;30799;49.060;9.312;2022-08-02T11:17:54;25.10;60.00
45060;DHT22;30799;49.060;9.312;2022-08-02T11:20:22;25.10;60.00
45060;DHT22;30799;49.060;9.312;2022-08-02T11:22:51;25.10;60.00
45060;DHT22;30799;49.060;9.312;2022-08-02T11:27:56;25.10;60.00
45060;DHT22;30799;49.060;9.312;2022-08-02T11:30:24;25.10;60.00
45060;DHT22;30799;49.060;9.312;2022-08-02T11:32:56;25.10;60.00
45060;DHT22;30799;49.060;9.312;2022-08-02T11:35:37;25.10;60.00
45060;DHT22;30799;49.060;9.312;2022-08-02T11:38:20;25.10;60.00
45060;DHT22;30799;49.060;9.312;2022-08-02T11:40:47;25.10;60.00
45060;DHT22;30799;49.060;9.312;2022-08-02T11:43:22;25.10;60.00
45060;DHT22;30799;49.060;9.312;2022-08-02T11:45:50;25.10;60.00
45060;DHT22;30799;49.060;9.312;2022-08-02T11:48:35;25.10;60.00
45060;DHT22;30799;49.060;9.312;2022-08-02T11:51:22;25.10;60.00
45060;DHT22;30799;49.060;9.312;2022-08-02T11:53:51;25.10;59.90
45060;DHT22;30799;49.060;9.312;2022-08-02T11:56:25;25.10;59.90
45060;DHT22;30799;49.060;9.312;2022-08-02T11:59:09;25.10;59.90
45060;DHT22;30799;49.060;9.312;2022-08-02T12:01:40;25.10;59.90
45060;DHT22;30799;49.060;9.312;2022-08-02T12:04:15;25.10;59.90
45060;DHT22;30799;49.060;9.312;2022-08-02T12:06:43;25.10;59.90
45060;DHT22;30799;49.060;9.312;2022-08-02T12:09:13;25.20;59.90
45060;DHT22;30799;49.060;9.312;2022-08-02T12:11:47;25.10;59.90
45060;DHT22;30799;49.060;9.312;2022-08-02T12:14:14;25.10;59.90
45060;DHT22;30799;49.060;9.312;2022-08-02T12:16:41;25.10;59.90
45060;DHT22;30799;49.060;9.312;2022-08-02T12:19:26;25.20;59.90
45060;DHT22;30799;49.060;9.312;2022-08-02T12:24:39;25.20;59.90
45060;DHT22;30799;49.060;9.312;2022-08-02T12:27:06;25.20;59.90
45060;DHT22;30799;49.060;9.312;2022-08-02T12:29:37;25.20;59.90
45060;DHT22;30799;49.060;9.312;2022-08-02T12:32:24;25.10;59.80
45060;DHT22;30799;49.060;9.312;2022-08-02T12:35:20;25.20;59.80
45060;DHT22;30799;49.060;9.312;2022-08-02T12:37:52;25.20;59.80
45060;DHT22;30799;49.060;9.312;2022-08-02T12:42:52;25.20;59.80
45060;DHT22;30799;49.060;9.312;2022-08-02T12:45:19;25.20;59.80
45060;DHT22;30799;49.060;9.312;2022-08-02T12:47:49;25.20;59.70
45060;DHT22;30799;49.060;9.312;2022-08-02T12:50:26;25.20;59.70
45060;DHT22;30799;49.060;9.312;2022-08-02T12:55:34;25.20;59.70
45060;DHT22;30799;49.060;9.312;2022-08-02T12:58:23;25.20;59.70
45060;DHT22;30799;49.060;9.312;2022-08-02T13:00:52;25.20;59.70
45060;DHT22;30799;49.060;9.312;2022-08-02T13:03:20;25.20;59.70
45060;DHT22;30799;49.060;9.312;2022-08-02T13:06:07;25.20;59.70
45060;DHT22;30799;49.060;9.312;2022-08-02T13:08:54;25.20;59.70
45060;DHT22;30799;49.060;9.312;2022-08-02T13:11:21;25.20;59.60
45060;DHT22;30799;49.060;9.312;2022-08-02T13:13:48;25.30;59.70
45060;DHT22;30799;49.060;9.312;2022-08-02T13:16:15;25.30;59.70
45060;DHT22;30799;49.060;9.312;2022-08-02T13:18:42;25.20;59.60
45060;DHT22;30799;49.060;9.312;2022-08-02T13:21:11;25.20;59.60
45060;DHT22;30799;49.060;9.312;2022-08-02T13:23:58;25.20;59.60
45060;DHT22;30799;49.060;9.312;2022-08-02T13:26:25;25.20;59.60
45060;DHT22;30799;49.060;9.312;2022-08-02T13:28:56;25.30;59.60
45060;DHT22;30799;49.060;9.312;2022-08-02T13:31:23;25.30;59.60
45060;DHT22;30799;49.060;9.312;2022-08-02T13:34:03;25.30;59.60
45060;DHT22;30799;49.060;9.312;2022-08-02T13:36:31;25.30;59.60
45060;DHT22;30799;49.060;9.312;2022-08-02T13:38:59;25.30;59.60
45060;DHT22;30799;49.060;9.312;2022-08-02T13:41:26;25.30;59.60
45060;DHT22;30799;49.060;9.312;2022-08-02T13:43:53;25.30;59.60
45060;DHT22;30799;49.060;9.312;2022-08-02T13:46:29;25.30;59.50
45060;DHT22;30799;49.060;9.312;2022-08-02T13:48:55;25.30;59.50
45060;DHT22;30799;49.060;9.312;2022-08-02T13:51:22;25.30;59.50
45060;DHT22;30799;49.060;9.312;2022-08-02T13:53:49;25.30;59.50
45060;DHT22;30799;49.060;9.312;2022-08-02T13:56:16;25.30;59.50
45060;DHT22;30799;49.060;9.312;2022-08-02T13:58:42;25.30;59.50
45060;DHT22;30799;49.060;9.312;2022-08-02T14:01:09;25.30;59.50
45060;DHT22;30799;49.060;9.312;2022-08-02T14:03:36;25.30;59.50
45060;DHT22;30799;49.060;9.312;2022-08-02T14:06:22;25.30;59.50
45060;DHT22;30799;49.060;9.312;2022-08-02T14:08:49;25.30;59.40
45060;DHT22;30799;49.060;9.312;2022-08-02T14:11:16;25.30;59.40
45060;DHT22;30799;49.060;9.312;2022-08-02T14:13:43;25.30;59.40
45060;DHT22;30799;49.060;9.312;2022-08-02T14:16:10;25.30;59.40
45060;DHT22;30799;49.060;9.312;2022-08-02T14:18:36;25.30;59.40
45060;DHT22;30799;49.060;9.312;2022-08-02T14:21:03;25.30;59.40
45060;DHT22;30799;49.060;9.312;2022-08-02T14:23:30;25.30;59.40
45060;DHT22;30799;49.060;9.312;2022-08-02T14:26:15;25.40;59.40
45060;DHT22;30799;49.060;9.312;2022-08-02T14:28:53;25.30;59.30
45060;DHT22;30799;49.060;9.312;2022-08-02T14:31:20;25.40;59.40
45060;DHT22;30799;49.060;9.312;2022-08-02T14:33:47;25.30;59.30
45060;DHT22;30799;49.060;9.312;2022-08-02T14:36:14;25.40;59.30
45060;DHT22;30799;49.060;9.312;2022-08-02T14:38:53;25.40;59.30
45060;DHT22;30799;49.060;9.312;2022-08-02T14:41:20;25.40;59.30
45060;DHT22;30799;49.060;9.312;2022-08-02T14:43:47;25.40;59.30
45060;DHT22;30799;49.060;9.312;2022-08-02T14:46:35;25.40;59.30
45060;DHT22;30799;49.060;9.312;2022-08-02T14:49:03;25.40;59.30
45060;DHT22;30799;49.060;9.312;2022-08-02T14:51:31;25.40;59.30
45060;DHT22;30799;49.060;9.312;2022-08-02T14:54:02;25.40;59.20
45060;DHT22;30799;49.060;9.312;2022-08-02T14:56:30;25.40;59.10
45060;DHT22;30799;49.060;9.312;2022-08-02T14:58:57;25.50;59.20
45060;DHT22;30799;49.060;9.312;2022-08-02T15:01:24;25.40;59.10
45060;DHT22;30799;49.060;9.312;2022-08-02T15:03:52;25.40;59.10
45060;DHT22;30799;49.060;9.312;2022-08-02T15:06:19;25.50;59.20
45060;DHT22;30799;49.060;9.312;2022-08-02T15:08:45;25.40;59.10
45060;DHT22;30799;49.060;9.312;2022-08-02T15:11:12;25.50;59.20
45060;DHT22;30799;49.060;9.312;2022-08-02T15:13:39;25.40;59.20
45060;DHT22;30799;49.060;9.312;2022-08-02T15:16:08;25.50;59.20
45060;DHT22;30799;49.060;9.312;2022-08-02T15:18:35;25.50;59.30
45060;DHT22;30799;49.060;9.312;2022-08-02T15:21:01;25.40;59.20
45060;DHT22;30799;49.060;9.312;2022-08-02T15:23:48;25.50;59.20
45060;DHT22;30799;49.060;9.312;2022-08-02T15:26:15;25.50;59.20
45060;DHT22;30799;49.060;9.312;2022-08-02T15:28:42;25.50;59.20
45060;DHT22;30799;49.060;9.312;2022-08-02T15:31:08;25.50;59.20
45060;DHT22;30799;49.060;9.312;2022-08-02T15:33:47;25.50;59.20
45060;DHT22;30799;49.060;9.312;2022-08-02T15:36:15;25.50;59.20
45060;DHT22;30799;49.060;9.312;2022-08-02T15:38:42;25.50;59.80
45060;DHT22;30799;49.060;9.312;2022-08-02T15:41:09;25.50;59.10
45060;DHT22;30799;49.060;9.312;2022-08-02T15:43:37;25.50;59.10
45060;DHT22;30799;49.060;9.312;2022-08-02T15:46:24;25.50;59.20
45060;DHT22;30799;49.060;9.312;2022-08-02T15:48:56;25.50;59.20
45060;DHT22;30799;49.060;9.312;2022-08-02T15:51:23;25.50;59.10
45060;DHT22;30799;49.060;9.312;2022-08-02T15:53:49;25.50;59.10
45060;DHT22;30799;49.060;9.312;2022-08-02T15:56:16;25.50;59.10
45060;DHT22;30799;49.060;9.312;2022-08-02T15:58:49;25.50;59.10
45060;DHT22;30799;49.060;9.312;2022-08-02T16:01:22;25.50;59.10
45060;DHT22;30799;49.060;9.312;2022-08-02T16:03:49;25.50;59.70
45060;DHT22;30799;49.060;9.312;2022-08-02T16:06:16;25.50;59.10
45060;DHT22;30799;49.060;9.312;2022-08-02T16:08:43;25.50;59.10
45060;DHT22;30799;49.060;9.312;2022-08-02T16:11:19;25.50;59.10
45060;DHT22;30799;49.060;9.312;2022-08-02T16:13:46;25.50;59.10
45060;DHT22;30799;49.060;9.312;2022-08-02T16:16:25;25.50;59.10
45060;DHT22;30799;49.060;9.312;2022-08-02T16:18:53;25.50;59.10
45060;DHT22;30799;49.060;9.312;2022-08-02T16:21:20;25.50;59.10
45060;DHT22;30799;49.060;9.312;2022-08-02T16:23:48;25.50;59.10
45060;DHT22;30799;49.060;9.312;2022-08-02T16:26:29;25.60;59.10